createdAt,value
2023-03-18T00:01:23.291Z,57.31
2023-03-18T00:03:50.576Z,57.21
2023-03-18T00:06:19.734Z,57.20
2023-03-18T00:08:48.460Z,57.15
2023-03-18T00:11:18.606Z,57.28
2023-03-18T00:13:46.793Z,57.18
2023-03-18T00:16:14.739Z,57.12
2023-03-18T00:18:42.568Z,57.20
2023-03-18T00:21:10.166Z,57.11
2023-03-18T00:23:37.354Z,57.26
2023-03-18T00:26:05.299Z,57.14
2023-03-18T00:28:32.829Z,57.20
2023-03-18T00:31:11.433Z,57.13
2023-03-18T00:33:46.295Z,57.15
2023-03-18T00:36:15.180Z,57.17
2023-03-18T00:38:44.016Z,57.09
2023-03-18T00:41:11.809Z,57.32
2023-03-18T00:43:52.539Z,57.15
2023-03-18T00:46:23.608Z,57.20
2023-03-18T00:48:52.414Z,57.10
2023-03-18T00:51:21.657Z,57.06
2023-03-18T00:53:51.985Z,56.99
2023-03-18T00:56:24.104Z,57.07
2023-03-18T00:58:52.580Z,57.09
2023-03-18T01:01:20.988Z,57.07
2023-03-18T01:03:50.194Z,56.95
2023-03-18T01:06:25.789Z,57.08
2023-03-18T01:08:53.879Z,57.05
2023-03-18T01:11:22.494Z,56.99
2023-03-18T01:13:50.154Z,57.05
2023-03-18T01:16:18.064Z,57.05
2023-03-18T01:18:45.726Z,57.01
2023-03-18T01:21:13.166Z,56.94
2023-03-18T01:23:47.245Z,56.97
2023-03-18T01:26:15.006Z,56.99
2023-03-18T01:28:43.274Z,56.94
2023-03-18T01:31:10.746Z,56.92
2023-03-18T01:33:38.968Z,56.95
2023-03-18T01:36:06.462Z,56.93
2023-03-18T01:38:33.957Z,56.91
2023-03-18T01:41:11.017Z,56.98
2023-03-18T01:43:40.898Z,56.85
2023-03-18T01:46:27.016Z,56.87
2023-03-18T01:48:54.213Z,56.90
2023-03-18T01:51:22.773Z,56.95
2023-03-18T01:53:50.953Z,56.84
2023-03-18T01:56:20.788Z,56.88
2023-03-18T01:58:52.719Z,56.88
2023-03-18T02:01:39.380Z,56.95
2023-03-18T02:04:10.584Z,56.87
2023-03-18T02:06:40.824Z,56.93
2023-03-18T02:09:10.135Z,56.96
2023-03-18T02:11:42.774Z,56.89
2023-03-18T02:14:13.363Z,56.85
2023-03-18T02:16:47.403Z,56.86
2023-03-18T02:19:22.025Z,56.82
2023-03-18T02:22:18.558Z,56.83
2023-03-18T02:24:49.351Z,56.77
2023-03-18T02:27:26.678Z,56.71
2023-03-18T02:29:59.384Z,56.75
2023-03-18T02:32:30.700Z,56.71
2023-03-18T02:35:01.450Z,56.77
2023-03-18T02:37:29.703Z,56.65
2023-03-18T02:40:16.225Z,56.80
2023-03-18T02:42:43.719Z,56.78
2023-03-18T02:45:23.909Z,56.83
2023-03-18T02:48:14.766Z,56.82
2023-03-18T02:50:42.470Z,56.69
2023-03-18T02:53:12.882Z,56.92
2023-03-18T02:55:40.690Z,56.78
2023-03-18T02:58:08.263Z,56.69
2023-03-18T03:00:36.683Z,56.70
2023-03-18T03:03:05.468Z,56.74
2023-03-18T03:05:34.669Z,56.78
2023-03-18T03:08:02.755Z,56.58
2023-03-18T03:10:31.161Z,56.72
2023-03-18T03:12:58.861Z,56.62
2023-03-18T03:15:26.982Z,56.60
2023-03-18T03:17:57.592Z,56.74
2023-03-18T03:20:25.138Z,56.60
2023-03-18T03:22:53.347Z,56.57
2023-03-18T03:25:20.722Z,56.66
2023-03-18T03:27:48.580Z,56.64
2023-03-18T03:30:16.676Z,56.66
2023-03-18T03:32:44.099Z,56.57
2023-03-18T03:35:14.174Z,56.63
2023-03-18T03:37:42.335Z,56.63
2023-03-18T03:40:14.884Z,56.47
2023-03-18T03:42:42.544Z,56.61
2023-03-18T03:45:10.508Z,56.67
2023-03-18T03:47:37.591Z,56.62
2023-03-18T03:50:06.105Z,56.57
2023-03-18T03:52:33.673Z,56.48
2023-03-18T03:55:00.976Z,56.63
2023-03-18T03:57:28.440Z,56.52
2023-03-18T03:59:56.506Z,56.60
2023-03-18T04:02:45.299Z,56.49
2023-03-18T04:05:15.232Z,56.49
2023-03-18T04:07:42.589Z,56.51
2023-03-18T04:10:12.358Z,56.50
2023-03-18T04:12:40.072Z,56.48
2023-03-18T04:15:09.705Z,56.53
2023-03-18T04:17:37.079Z,56.51
2023-03-18T04:20:05.430Z,56.52
2023-03-18T04:22:32.897Z,56.41
2023-03-18T04:25:01.149Z,56.49
2023-03-18T04:27:28.707Z,56.40
2023-03-18T04:29:56.441Z,56.48
2023-03-18T04:32:25.564Z,56.50
2023-03-18T04:34:52.632Z,56.53
2023-03-18T04:37:20.907Z,56.35
2023-03-18T04:39:50.217Z,56.48
2023-03-18T04:42:18.092Z,56.45
2023-03-18T04:44:45.765Z,56.41
2023-03-18T04:47:13.912Z,56.27
2023-03-18T04:49:42.062Z,56.35
2023-03-18T04:52:09.141Z,56.41
2023-03-18T04:54:39.126Z,56.45
2023-03-18T04:57:07.662Z,56.32
2023-03-18T04:59:38.429Z,56.36
2023-03-18T05:02:06.617Z,56.44
2023-03-18T05:04:34.030Z,56.40
2023-03-18T05:07:01.408Z,56.37
2023-03-18T05:09:32.416Z,56.37
2023-03-18T05:11:59.781Z,56.32
2023-03-18T05:14:35.814Z,56.21
2023-03-18T05:17:04.885Z,56.32
2023-03-18T05:19:33.700Z,56.29
2023-03-18T05:22:08.714Z,56.29
2023-03-18T05:24:36.019Z,56.30
2023-03-18T05:27:03.801Z,56.34
2023-03-18T05:29:35.717Z,56.37
2023-03-18T05:32:11.291Z,56.33
2023-03-18T05:34:40.644Z,56.37
2023-03-18T05:37:11.131Z,56.29
2023-03-18T05:39:41.723Z,56.28
2023-03-18T05:42:12.680Z,56.21
2023-03-18T05:44:40.457Z,56.34
2023-03-18T05:47:10.064Z,56.14
2023-03-18T05:50:06.647Z,56.28
2023-03-18T05:52:34.791Z,56.20
2023-03-18T05:55:04.743Z,56.14
2023-03-18T05:57:34.723Z,56.24
2023-03-18T06:00:05.240Z,56.26
2023-03-18T06:02:45.228Z,56.15
2023-03-18T06:05:13.856Z,56.12
2023-03-18T06:07:41.701Z,56.12
2023-03-18T06:10:10.612Z,56.11
2023-03-18T06:12:38.129Z,56.13
2023-03-18T06:15:08.480Z,56.19
2023-03-18T06:17:35.728Z,56.16
2023-03-18T06:20:05.595Z,56.19
2023-03-18T06:22:33.154Z,56.12
2023-03-18T06:25:00.255Z,56.13
2023-03-18T06:27:27.491Z,56.19
2023-03-18T06:29:56.583Z,56.08
2023-03-18T06:32:23.908Z,56.19
2023-03-18T06:34:51.211Z,56.18
2023-03-18T06:37:18.414Z,56.09
2023-03-18T06:39:45.676Z,56.04
2023-03-18T06:42:13.380Z,56.13
2023-03-18T06:44:56.531Z,56.08
2023-03-18T06:47:28.662Z,56.07
2023-03-18T06:49:57.007Z,56.07
2023-03-18T06:52:33.806Z,56.12
2023-03-18T06:55:06.644Z,56.15
2023-03-18T06:57:36.957Z,56.15
2023-03-18T07:00:05.237Z,56.15
2023-03-18T07:02:32.365Z,56.26
2023-03-18T07:05:00.333Z,56.17
2023-03-18T07:07:30.304Z,56.11
2023-03-18T07:09:57.576Z,56.10
2023-03-18T07:12:24.981Z,56.06
2023-03-18T07:14:53.823Z,56.08
2023-03-18T07:17:21.799Z,56.16
2023-03-18T07:19:49.045Z,56.20
2023-03-18T07:22:19.630Z,56.20
2023-03-18T07:24:47.775Z,56.05
2023-03-18T07:27:14.860Z,56.03
2023-03-18T07:29:42.375Z,56.13
2023-03-18T07:32:09.816Z,56.01
2023-03-18T07:34:37.072Z,56.15
2023-03-18T07:37:04.262Z,56.25
2023-03-18T07:39:31.987Z,56.17
2023-03-18T07:41:59.441Z,56.03
2023-03-18T07:44:29.946Z,56.16
2023-03-18T07:46:57.711Z,55.98
2023-03-18T07:49:24.788Z,56.10
2023-03-18T07:51:52.373Z,56.19
2023-03-18T07:54:20.239Z,56.10
2023-03-18T07:56:47.382Z,56.03
2023-03-18T07:59:17.199Z,56.16
2023-03-18T08:01:45.480Z,56.01
2023-03-18T08:04:12.752Z,55.96
2023-03-18T08:06:39.881Z,55.98
2023-03-18T08:09:07.169Z,55.96
2023-03-18T08:11:34.399Z,55.99
2023-03-18T08:14:01.803Z,55.92
2023-03-18T08:16:29.596Z,55.89
2023-03-18T08:18:56.818Z,56.14
2023-03-18T08:21:24.860Z,56.07
2023-03-18T08:23:52.164Z,56.00
2023-03-18T08:26:19.645Z,56.13
2023-03-18T08:28:46.795Z,55.96
2023-03-18T08:31:14.507Z,55.88
2023-03-18T08:33:42.402Z,55.81
2023-03-18T08:36:09.808Z,55.92
2023-03-18T08:38:36.954Z,55.92
2023-03-18T08:41:04.240Z,55.93
2023-03-18T08:43:31.373Z,55.92
2023-03-18T08:45:58.870Z,55.91
2023-03-18T08:48:26.154Z,56.11
2023-03-18T08:50:53.763Z,56.17
2023-03-18T08:53:20.971Z,56.03
2023-03-18T08:55:48.638Z,56.18
2023-03-18T08:58:15.806Z,56.04
2023-03-18T09:00:43.415Z,56.16
2023-03-18T09:03:11.448Z,56.14
2023-03-18T09:05:38.772Z,56.11
2023-03-18T09:08:06.711Z,55.83
2023-03-18T09:10:34.355Z,55.88
2023-03-18T09:13:01.426Z,55.79
2023-03-18T09:15:28.520Z,55.99
2023-03-18T09:18:10.390Z,55.93
2023-03-18T09:20:39.095Z,55.76
2023-03-18T09:23:06.880Z,55.82
2023-03-18T09:25:34.591Z,56.05
2023-03-18T09:28:02.146Z,55.88
2023-03-18T09:30:29.334Z,55.96
2023-03-18T09:32:56.848Z,56.27
2023-03-18T09:35:24.334Z,55.79
2023-03-18T09:37:52.091Z,55.80
2023-03-18T09:40:27.731Z,55.67
2023-03-18T09:43:15.943Z,55.53
2023-03-18T09:45:51.285Z,55.65
2023-03-18T09:48:46.061Z,55.69
2023-03-18T09:51:22.330Z,55.71
2023-03-18T09:53:56.945Z,55.86
2023-03-18T09:56:29.632Z,55.51
2023-03-18T09:59:12.574Z,55.72
2023-03-18T10:01:41.334Z,55.70
2023-03-18T10:04:37.278Z,55.98
2023-03-18T10:07:14.378Z,55.56
2023-03-18T10:09:52.135Z,55.59
2023-03-18T10:12:31.903Z,55.67
2023-03-18T10:15:11.148Z,55.46
2023-03-18T10:18:09.561Z,55.58
2023-03-18T10:20:51.841Z,55.52
2023-03-18T10:23:34.301Z,55.35
2023-03-18T10:26:12.127Z,55.52
2023-03-18T10:29:10.792Z,55.55
2023-03-18T10:31:53.667Z,55.51
2023-03-18T10:34:29.721Z,55.59
2023-03-18T10:36:59.666Z,55.47
2023-03-18T10:39:28.900Z,55.67
2023-03-18T10:42:01.269Z,55.43
2023-03-18T10:44:36.844Z,55.60
2023-03-18T10:47:19.906Z,55.45
2023-03-18T10:50:32.577Z,55.40
2023-03-18T10:53:16.672Z,55.37
2023-03-18T10:56:00.398Z,55.43
2023-03-18T10:58:29.514Z,55.55
2023-03-18T11:00:57.020Z,55.44
2023-03-18T11:03:29.470Z,55.67
2023-03-18T11:05:58.469Z,55.45
2023-03-18T11:08:34.423Z,55.56
2023-03-18T11:11:26.455Z,55.45
2023-03-18T11:13:56.453Z,55.52
2023-03-18T11:16:46.781Z,55.43
2023-03-18T11:19:34.191Z,55.25
2023-03-18T11:22:05.555Z,55.30
2023-03-18T11:24:36.577Z,55.28
2023-03-18T11:27:04.382Z,55.27
2023-03-18T11:29:34.319Z,55.48
2023-03-18T11:32:02.460Z,55.23
2023-03-18T11:34:32.148Z,55.33
2023-03-18T11:37:04.762Z,55.26
2023-03-18T11:39:37.655Z,55.21
2023-03-18T11:42:19.051Z,55.22
2023-03-18T11:44:47.779Z,55.12
2023-03-18T11:47:27.397Z,54.80
2023-03-18T11:49:54.793Z,54.89
2023-03-18T11:52:28.025Z,55.04
2023-03-18T11:55:01.321Z,54.91
2023-03-18T11:57:38.097Z,55.02
2023-03-18T12:00:25.492Z,55.03
2023-03-18T12:03:11.334Z,55.06
2023-03-18T12:05:44.629Z,54.97
2023-03-18T12:08:23.041Z,54.85
2023-03-18T12:11:34.561Z,54.95
2023-03-18T12:14:28.450Z,54.86
2023-03-18T12:16:59.200Z,54.74
2023-03-18T12:19:47.035Z,54.74
2023-03-18T12:22:39.253Z,54.79
2023-03-18T12:25:30.831Z,54.78
2023-03-18T12:28:13.716Z,54.64
2023-03-18T12:30:47.090Z,54.70
2023-03-18T12:33:23.263Z,54.63
2023-03-18T12:36:05.833Z,54.66
2023-03-18T12:38:45.416Z,54.51
2023-03-18T12:41:36.762Z,54.64
2023-03-18T12:44:22.997Z,54.65
2023-03-18T12:46:58.039Z,54.60
2023-03-18T12:49:41.897Z,54.69
2023-03-18T12:52:15.327Z,54.59
2023-03-18T12:54:49.238Z,54.79
2023-03-18T12:57:26.938Z,54.46
2023-03-18T13:00:02.737Z,54.52
2023-03-18T13:02:49.546Z,54.54
2023-03-18T13:05:33.819Z,54.35
2023-03-18T13:08:14.694Z,54.38
2023-03-18T13:10:46.701Z,54.45
2023-03-18T13:13:14.981Z,54.47
2023-03-18T13:15:52.783Z,54.53
2023-03-18T13:18:25.357Z,54.47
2023-03-18T13:20:54.782Z,54.39
2023-03-18T13:23:21.835Z,54.07
2023-03-18T13:25:54.876Z,54.41
2023-03-18T13:28:28.165Z,54.47
2023-03-18T13:31:33.552Z,54.31
2023-03-18T13:34:37.677Z,54.32
2023-03-18T13:37:23.290Z,54.17
2023-03-18T13:40:04.450Z,54.25
2023-03-18T13:42:33.813Z,54.37
2023-03-18T13:45:13.052Z,54.27
2023-03-18T13:47:42.751Z,54.10
2023-03-18T13:50:19.076Z,54.18
2023-03-18T13:52:48.227Z,54.13
2023-03-18T13:55:30.647Z,54.18
2023-03-18T13:58:17.703Z,54.02
2023-03-18T14:01:09.171Z,54.00
2023-03-18T14:03:42.440Z,54.31
2023-03-18T14:06:10.112Z,54.05
2023-03-18T14:08:42.357Z,53.94
2023-03-18T14:11:23.124Z,53.81
2023-03-18T14:13:56.954Z,54.01
2023-03-18T14:16:38.041Z,53.91
2023-03-18T14:19:22.184Z,53.91
2023-03-18T14:22:06.746Z,53.95
2023-03-18T14:24:34.433Z,53.93
2023-03-18T14:27:04.496Z,53.79
2023-03-18T14:29:37.534Z,53.77
2023-03-18T14:32:50.984Z,54.03
2023-03-18T14:35:18.130Z,53.77
2023-03-18T14:38:06.593Z,53.77
2023-03-18T14:40:42.019Z,54.06
2023-03-18T14:43:34.748Z,53.95
2023-03-18T14:46:06.273Z,53.84
2023-03-18T14:48:34.631Z,53.79
2023-03-18T14:51:10.686Z,53.93
2023-03-18T14:53:49.012Z,53.78
2023-03-18T14:56:24.682Z,53.70
2023-03-18T14:58:53.590Z,53.69
2023-03-18T15:01:25.114Z,53.69
2023-03-18T15:03:55.389Z,53.83
2023-03-18T15:06:25.826Z,53.66
2023-03-18T15:09:09.797Z,53.77
2023-03-18T15:11:43.585Z,53.60
2023-03-18T15:14:13.216Z,53.68
2023-03-18T15:16:40.341Z,53.77
2023-03-18T15:19:11.744Z,53.59
2023-03-18T15:21:39.293Z,53.60
2023-03-18T15:24:08.420Z,53.51
2023-03-18T15:26:38.952Z,53.70
2023-03-18T15:29:43.886Z,53.68
2023-03-18T15:32:27.671Z,53.35
2023-03-18T15:35:11.305Z,53.50
2023-03-18T15:37:41.255Z,53.37
2023-03-18T15:40:38.663Z,53.50
2023-03-18T15:43:08.767Z,53.54
2023-03-18T15:45:40.230Z,53.43
2023-03-18T15:48:18.657Z,53.34
2023-03-18T15:50:53.642Z,53.47
2023-03-18T15:53:26.192Z,53.42
2023-03-18T15:56:11.562Z,53.49
2023-03-18T15:58:39.123Z,53.61
2023-03-18T16:01:08.114Z,53.41
2023-03-18T16:03:35.602Z,53.51
2023-03-18T16:06:03.221Z,53.36
2023-03-18T16:08:30.676Z,53.50
2023-03-18T16:11:02.492Z,53.43
2023-03-18T16:13:36.006Z,53.51
2023-03-18T16:16:03.998Z,53.37
2023-03-18T16:18:32.708Z,53.36
2023-03-18T16:21:00.278Z,53.29
2023-03-18T16:23:27.759Z,53.53
2023-03-18T16:25:56.309Z,53.53
2023-03-18T16:28:26.199Z,53.39
2023-03-18T16:30:54.429Z,53.30
2023-03-18T16:33:23.421Z,53.42
2023-03-18T16:35:58.764Z,53.34
2023-03-18T16:38:26.719Z,53.42
2023-03-18T16:40:55.029Z,53.35
2023-03-18T16:43:24.651Z,53.34
2023-03-18T16:45:52.024Z,53.30
2023-03-18T16:48:21.979Z,53.33
2023-03-18T16:50:51.254Z,53.53
2023-03-18T16:53:24.602Z,53.31
2023-03-18T16:55:55.934Z,53.20
2023-03-18T16:58:30.562Z,53.21
2023-03-18T17:00:58.259Z,53.27
2023-03-18T17:03:26.067Z,53.19
2023-03-18T17:05:54.010Z,53.31
2023-03-18T17:08:21.965Z,53.27
2023-03-18T17:10:56.990Z,53.18
2023-03-18T17:13:27.699Z,53.19
2023-03-18T17:15:55.169Z,53.26
2023-03-18T17:18:24.675Z,53.32
2023-03-18T17:20:52.048Z,53.32
2023-03-18T17:23:21.945Z,53.35
2023-03-18T17:25:59.679Z,53.16
2023-03-18T17:28:35.775Z,53.17
2023-03-18T17:31:03.560Z,53.05
2023-03-18T17:33:33.680Z,53.08
2023-03-18T17:36:02.012Z,53.15
2023-03-18T17:38:31.198Z,53.19
2023-03-18T17:40:59.638Z,53.13
2023-03-18T17:43:29.523Z,53.02
2023-03-18T17:45:58.164Z,53.06
2023-03-18T17:48:30.693Z,53.12
2023-03-18T17:51:07.155Z,53.08
2023-03-18T17:53:39.992Z,53.15
2023-03-18T17:56:10.837Z,53.09
2023-03-18T17:58:42.994Z,53.18
2023-03-18T18:01:22.556Z,53.05
2023-03-18T18:03:50.302Z,53.13
2023-03-18T18:06:20.649Z,53.18
2023-03-18T18:08:48.870Z,53.16
2023-03-18T18:11:31.066Z,53.17
2023-03-18T18:14:09.777Z,53.02
2023-03-18T18:16:37.630Z,53.02
2023-03-18T18:19:04.819Z,53.09
2023-03-18T18:21:32.233Z,53.03
2023-03-18T18:23:59.357Z,53.02
2023-03-18T18:26:26.475Z,53.02
2023-03-18T18:28:54.341Z,53.21
2023-03-18T18:31:24.179Z,52.98
2023-03-18T18:33:52.661Z,53.13
2023-03-18T18:36:21.522Z,52.93
2023-03-18T18:38:48.630Z,53.06
2023-03-18T18:41:15.722Z,52.91
2023-03-18T18:43:42.869Z,52.97
2023-03-18T18:46:15.800Z,52.95
2023-03-18T18:48:48.023Z,52.80
2023-03-18T18:51:19.648Z,52.96
2023-03-18T18:53:47.771Z,52.92
2023-03-18T18:56:48.347Z,52.88
2023-03-18T18:59:18.426Z,52.74
2023-03-18T19:01:45.446Z,53.00
2023-03-18T19:04:16.796Z,52.90
2023-03-18T19:06:44.865Z,52.77
2023-03-18T19:09:21.164Z,52.92
2023-03-18T19:11:50.307Z,52.93
2023-03-18T19:14:26.083Z,52.93
2023-03-18T19:16:56.593Z,52.83
2023-03-18T19:19:34.523Z,52.95
2023-03-18T19:22:02.949Z,52.94
2023-03-18T19:24:38.173Z,52.72
2023-03-18T19:27:15.653Z,52.87
2023-03-18T19:29:43.519Z,52.86
2023-03-18T19:32:16.456Z,52.67
2023-03-18T19:34:44.197Z,52.89
2023-03-18T19:37:32.635Z,52.69
2023-03-18T19:40:02.379Z,52.83
2023-03-18T19:42:29.818Z,52.81
2023-03-18T19:44:57.447Z,52.70
2023-03-18T19:47:27.306Z,52.81
2023-03-18T19:49:55.251Z,52.91
2023-03-18T19:52:23.909Z,52.79
2023-03-18T19:54:52.096Z,52.80
2023-03-18T19:57:21.593Z,53.01
2023-03-18T19:59:50.487Z,52.66
2023-03-18T20:02:27.862Z,52.64
2023-03-18T20:04:57.656Z,52.75
2023-03-18T20:07:27.532Z,52.72
2023-03-18T20:09:55.056Z,52.74
2023-03-18T20:12:30.501Z,52.76
2023-03-18T20:14:57.746Z,52.64
2023-03-18T20:17:37.321Z,52.72
2023-03-18T20:20:11.985Z,52.69
2023-03-18T20:22:42.292Z,52.82
2023-03-18T20:25:30.360Z,52.74
2023-03-18T20:27:58.331Z,52.71
2023-03-18T20:30:29.319Z,52.72
2023-03-18T20:32:57.443Z,52.66
2023-03-18T20:35:28.654Z,52.84
2023-03-18T20:37:58.287Z,52.78
2023-03-18T20:40:29.789Z,52.81
2023-03-18T20:42:57.587Z,52.74
2023-03-18T20:45:26.343Z,52.69
2023-03-18T20:47:53.912Z,52.86
2023-03-18T20:50:31.246Z,52.75
2023-03-18T20:52:58.946Z,52.66
2023-03-18T20:55:31.184Z,52.68
2023-03-18T20:58:00.222Z,52.72
2023-03-18T21:00:30.291Z,52.63
2023-03-18T21:02:59.055Z,52.90
2023-03-18T21:05:27.659Z,52.56
2023-03-18T21:07:54.878Z,52.69
2023-03-18T21:10:25.204Z,52.62
2023-03-18T21:12:52.663Z,52.77
2023-03-18T21:15:23.194Z,52.61
2023-03-18T21:17:50.931Z,52.66
2023-03-18T21:20:22.431Z,52.61
2023-03-18T21:22:50.954Z,52.70
2023-03-18T21:25:24.064Z,52.67
2023-03-18T21:27:51.701Z,52.75
2023-03-18T21:30:21.537Z,52.85
2023-03-18T21:32:50.702Z,52.66
2023-03-18T21:35:23.181Z,52.74
2023-03-18T21:37:51.254Z,52.78
2023-03-18T21:40:25.462Z,52.67
2023-03-18T21:42:52.735Z,52.92
2023-03-18T21:45:22.999Z,52.76
2023-03-18T21:47:52.576Z,52.74
2023-03-18T21:50:23.019Z,52.71
2023-03-18T21:52:50.072Z,52.85
2023-03-18T21:55:17.446Z,52.70
2023-03-18T21:57:46.286Z,52.70
2023-03-18T22:00:19.300Z,52.86
2023-03-18T22:02:47.510Z,52.76
2023-03-18T22:05:19.465Z,52.82
2023-03-18T22:07:46.959Z,52.78
2023-03-18T22:10:23.274Z,52.91
2023-03-18T22:12:50.914Z,52.84
2023-03-18T22:15:23.922Z,52.77
2023-03-18T22:17:52.000Z,52.95
2023-03-18T22:20:19.118Z,52.93
2023-03-18T22:22:47.621Z,52.77
2023-03-18T22:25:29.417Z,52.59
2023-03-18T22:27:57.895Z,52.65
2023-03-18T22:30:26.764Z,52.76
2023-03-18T22:32:55.615Z,52.92
2023-03-18T22:35:25.569Z,52.92
2023-03-18T22:37:53.114Z,52.99
2023-03-18T22:40:23.068Z,52.93
2023-03-18T22:42:52.906Z,52.98
2023-03-18T22:45:21.846Z,52.95
2023-03-18T22:47:50.444Z,52.80
2023-03-18T22:50:18.325Z,52.99
2023-03-18T22:52:48.553Z,52.74
2023-03-18T22:55:21.043Z,52.90
2023-03-18T22:57:48.841Z,52.93
2023-03-18T23:00:34.217Z,52.83
2023-03-18T23:03:01.907Z,52.85
2023-03-18T23:05:29.276Z,52.82
2023-03-18T23:07:56.334Z,52.97
2023-03-18T23:10:23.608Z,52.84
2023-03-18T23:12:50.769Z,52.89
2023-03-18T23:15:21.726Z,52.88
2023-03-18T23:17:49.927Z,53.09
2023-03-18T23:20:18.391Z,52.89
2023-03-18T23:22:45.979Z,53.08
2023-03-18T23:25:17.999Z,52.89
2023-03-18T23:27:45.568Z,52.99
2023-03-18T23:30:13.846Z,52.88
2023-03-18T23:32:41.491Z,52.94
2023-03-18T23:35:09.483Z,52.83
2023-03-18T23:37:36.672Z,52.83
2023-03-18T23:40:05.378Z,52.77
2023-03-18T23:42:32.553Z,52.77
2023-03-18T23:44:59.742Z,52.88
2023-03-18T23:47:26.822Z,52.86
2023-03-18T23:49:53.943Z,52.78
2023-03-18T23:52:21.202Z,52.79
2023-03-18T23:54:48.376Z,52.93
2023-03-18T23:57:15.608Z,52.88
2023-03-18T23:59:42.761Z,52.89
